sensor_id;sensor_type;location;lat;lon;timestamp;pressure;altitude;pressure_sealevel;temperature;humidity
62374;BME280;48409;49.030;1.820;2022-12-18T07:58:45;101424.56;;;-2.11;60.63
62374;BME280;48409;49.030;1.820;2022-12-18T08:01:14;101422.88;;;-2.08;60.46
62374;BME280;48409;49.030;1.820;2022-12-18T08:03:40;101425.50;;;-2.07;60.64
62374;BME280;48409;49.030;1.820;2022-12-18T09:54:05;101454.69;;;-1.03;61.04
62374;BME280;48409;49.030;1.820;2022-12-18T10:25:02;101449.13;;;-0.71;61.37
62374;BME280;48409;49.030;1.820;2022-12-18T10:27:30;101450.03;;;-0.67;61.47
62374;BME280;48409;49.030;1.820;2022-12-18T10:36:00;101444.97;;;-0.58;61.27
62374;BME280;48409;49.030;1.820;2022-12-18T10:38:45;101440.66;;;-0.56;61.15
62374;BME280;48409;49.030;1.820;2022-12-18T10:43:46;101435.53;;;-0.51;61.13
62374;BME280;48409;49.030;1.820;2022-12-18T10:46:19;101433.81;;;-0.49;61.29
62374;BME280;48409;49.030;1.820;2022-12-18T10:48:57;101423.50;;;-0.47;61.41
62374;BME280;48409;49.030;1.820;2022-12-18T10:51:31;101420.09;;;-0.46;61.35
62374;BME280;48409;49.030;1.820;2022-12-18T10:56:51;101421.00;;;-0.38;61.48
62374;BME280;48409;49.030;1.820;2022-12-18T11:00:22;101414.16;;;-0.34;61.52
62374;BME280;48409;49.030;1.820;2022-12-18T11:02:52;101415.00;;;-0.34;61.39
62374;BME280;48409;49.030;1.820;2022-12-18T11:05:32;101412.47;;;-0.31;61.54
62374;BME280;48409;49.030;1.820;2022-12-18T11:07:59;101417.69;;;-0.28;61.50
62374;BME280;48409;49.030;1.820;2022-12-18T11:10:38;101414.25;;;-0.25;61.63
62374;BME280;48409;49.030;1.820;2022-12-18T11:13:11;101410.84;;;-0.22;61.41
62374;BME280;48409;49.030;1.820;2022-12-18T11:15:40;101411.69;;;-0.20;61.42
62374;BME280;48409;49.030;1.820;2022-12-18T11:18:28;101407.41;;;-0.20;61.45
62374;BME280;48409;49.030;1.820;2022-12-18T11:21:11;101393.56;;;-0.20;61.62
62374;BME280;48409;49.030;1.820;2022-12-18T11:23:53;101394.44;;;-0.20;61.52
62374;BME280;48409;49.030;1.820;2022-12-18T11:26:35;101395.34;;;-0.16;61.46
62374;BME280;48409;49.030;1.820;2022-12-18T11:29:38;101393.69;;;-0.12;61.44
62374;BME280;48409;49.030;1.820;2022-12-18T11:34:45;101384.25;;;-0.06;61.48
62374;BME280;48409;49.030;1.820;2022-12-18T11:37:13;101379.06;;;-0.03;61.53
62374;BME280;48409;49.030;1.820;2022-12-18T11:55:49;101365.47;;;0.20;61.70
62374;BME280;48409;49.030;1.820;2022-12-18T11:59:03;101359.44;;;0.23;61.84
62374;BME280;48409;49.030;1.820;2022-12-18T12:15:05;101343.13;;;0.38;61.80
62374;BME280;48409;49.030;1.820;2022-12-18T12:42:57;101313.88;;;0.64;61.75
62374;BME280;48409;49.030;1.820;2022-12-18T12:48:19;101305.28;;;0.71;61.82
62374;BME280;48409;49.030;1.820;2022-12-18T12:51:02;101300.09;;;0.71;62.12
62374;BME280;48409;49.030;1.820;2022-12-18T12:53:42;101288.00;;;0.75;62.03
62374;BME280;48409;49.030;1.820;2022-12-18T12:56:12;101277.63;;;0.76;61.71
62374;BME280;48409;49.030;1.820;2022-12-18T13:04:45;101281.13;;;0.85;61.90
62374;BME280;48409;49.030;1.820;2022-12-18T13:23:48;101275.97;;;0.97;61.67
62374;BME280;48409;49.030;1.820;2022-12-18T13:28:57;101266.47;;;1.02;62.04
62374;BME280;48409;49.030;1.820;2022-12-18T13:42:55;101244.84;;;1.03;61.87
62374;BME280;48409;49.030;1.820;2022-12-18T13:45:49;101246.63;;;1.04;61.95
62374;BME280;48409;49.030;1.820;2022-12-18T13:48:31;101235.38;;;1.06;61.80
62374;BME280;48409;49.030;1.820;2022-12-18T13:51:46;101237.09;;;1.08;61.68
62374;BME280;48409;49.030;1.820;2022-12-18T13:57:32;101229.31;;;1.13;61.87
62374;BME280;48409;49.030;1.820;2022-12-18T14:00:25;101217.19;;;1.12;61.85
62374;BME280;48409;49.030;1.820;2022-12-18T14:06:35;101216.34;;;1.16;61.74
62374;BME280;48409;49.030;1.820;2022-12-18T14:09:25;101204.25;;;1.16;61.83
62374;BME280;48409;49.030;1.820;2022-12-18T14:21:26;101206.81;;;1.20;61.52
62374;BME280;48409;49.030;1.820;2022-12-18T14:40:05;101195.59;;;1.27;61.68
62374;BME280;48409;49.030;1.820;2022-12-18T14:42:31;101195.59;;;1.28;61.78
62374;BME280;48409;49.030;1.820;2022-12-18T14:48:43;101193.84;;;1.30;61.67
62374;BME280;48409;49.030;1.820;2022-12-18T14:56:55;101203.41;;;1.32;61.61
62374;BME280;48409;49.030;1.820;2022-12-18T15:28:31;101146.28;;;1.41;61.77
62374;BME280;48409;49.030;1.820;2022-12-18T15:33:42;101142.81;;;1.42;61.81
62374;BME280;48409;49.030;1.820;2022-12-18T15:36:27;101142.81;;;1.42;61.48
62374;BME280;48409;49.030;1.820;2022-12-18T15:38:55;101141.06;;;1.44;61.66
62374;BME280;48409;49.030;1.820;2022-12-18T15:41:37;101140.22;;;1.43;61.47
62374;BME280;48409;49.030;1.820;2022-12-18T15:44:25;101141.94;;;1.45;61.66
62374;BME280;48409;49.030;1.820;2022-12-18T15:46:53;101145.41;;;1.45;61.67
62374;BME280;48409;49.030;1.820;2022-12-18T15:49:21;101142.81;;;1.45;61.57
62374;BME280;48409;49.030;1.820;2022-12-18T15:51:56;101134.16;;;1.46;61.64
62374;BME280;48409;49.030;1.820;2022-12-18T15:54:23;101143.66;;;1.46;61.68
62374;BME280;48409;49.030;1.820;2022-12-18T15:57:12;101144.53;;;1.48;61.55
62374;BME280;48409;49.030;1.820;2022-12-18T15:59:55;101143.66;;;1.49;61.48
62374;BME280;48409;49.030;1.820;2022-12-18T16:02:24;101146.25;;;1.49;61.68
62374;BME280;48409;49.030;1.820;2022-12-18T16:04:51;101148.88;;;1.50;61.58
62374;BME280;48409;49.030;1.820;2022-12-18T16:07:17;101156.66;;;1.50;61.50
62374;BME280;48409;49.030;1.820;2022-12-18T16:09:46;101153.19;;;1.51;61.77
62374;BME280;48409;49.030;1.820;2022-12-18T16:12:22;101142.78;;;1.51;61.58
62374;BME280;48409;49.030;1.820;2022-12-18T16:14:49;101149.72;;;1.52;61.66
62374;BME280;48409;49.030;1.820;2022-12-18T16:17:15;101151.47;;;1.53;61.71
62374;BME280;48409;49.030;1.820;2022-12-18T16:19:47;101147.13;;;1.54;61.63
62374;BME280;48409;49.030;1.820;2022-12-18T16:22:23;101142.81;;;1.54;61.58
62374;BME280;48409;49.030;1.820;2022-12-18T16:24:50;101138.47;;;1.55;61.54
62374;BME280;48409;49.030;1.820;2022-12-18T16:27:16;101129.81;;;1.54;61.50
62374;BME280;48409;49.030;1.820;2022-12-18T16:29:55;101128.94;;;1.57;61.58
62374;BME280;48409;49.030;1.820;2022-12-18T16:32:30;101127.22;;;1.56;61.55
62374;BME280;48409;49.030;1.820;2022-12-18T16:35:02;101120.28;;;1.60;61.72
62374;BME280;48409;49.030;1.820;2022-12-18T16:37:28;101123.75;;;1.59;61.51
62374;BME280;48409;49.030;1.820;2022-12-18T16:39:53;101113.38;;;1.59;61.74
62374;BME280;48409;49.030;1.820;2022-12-18T16:42:19;101099.50;;;1.60;61.65
62374;BME280;48409;49.030;1.820;2022-12-18T16:44:46;101106.44;;;1.61;61.67
62374;BME280;48409;49.030;1.820;2022-12-18T16:47:15;101106.44;;;1.61;61.51
62374;BME280;48409;49.030;1.820;2022-12-18T16:49:42;101099.50;;;1.63;61.83
62374;BME280;48409;49.030;1.820;2022-12-18T16:52:10;101097.75;;;1.63;61.84
62374;BME280;48409;49.030;1.820;2022-12-18T16:54:37;101094.31;;;1.64;61.87
62374;BME280;48409;49.030;1.820;2022-12-18T16:57:03;101087.38;;;1.65;61.86
62374;BME280;48409;49.030;1.820;2022-12-18T16:59:31;101082.19;;;1.68;61.87
62374;BME280;48409;49.030;1.820;2022-12-18T17:02:04;101081.31;;;1.69;61.68
62374;BME280;48409;49.030;1.820;2022-12-18T17:04:29;101080.44;;;1.70;61.79
62374;BME280;48409;49.030;1.820;2022-12-18T17:06:57;101078.72;;;1.72;61.63
62374;BME280;48409;49.030;1.820;2022-12-18T17:09:23;101075.22;;;1.73;61.72
62374;BME280;48409;49.030;1.820;2022-12-18T17:11:55;101070.03;;;1.73;61.73
62374;BME280;48409;49.030;1.820;2022-12-18T17:14:23;101075.22;;;1.76;61.93
62374;BME280;48409;49.030;1.820;2022-12-18T17:17:01;101066.56;;;1.77;61.75
62374;BME280;48409;49.030;1.820;2022-12-18T17:19:36;101073.47;;;1.80;62.01
62374;BME280;48409;49.030;1.820;2022-12-18T17:22:04;101074.34;;;1.80;61.82
62374;BME280;48409;49.030;1.820;2022-12-18T17:24:32;101092.50;;;1.83;61.80
62374;BME280;48409;49.030;1.820;2022-12-18T17:27:00;101075.19;;;1.86;62.04
62374;BME280;48409;49.030;1.820;2022-12-18T17:29:28;101076.03;;;1.88;61.96
62374;BME280;48409;49.030;1.820;2022-12-18T17:31:53;101076.03;;;1.89;62.07
62374;BME280;48409;49.030;1.820;2022-12-18T17:34:19;101071.69;;;1.93;61.89
62374;BME280;48409;49.030;1.820;2022-12-18T17:36:46;101065.66;;;1.92;61.89
62374;BME280;48409;49.030;1.820;2022-12-18T17:39:16;101076.00;;;1.97;62.00
62374;BME280;48409;49.030;1.820;2022-12-18T17:41:44;101076.88;;;1.99;62.02
62374;BME280;48409;49.030;1.820;2022-12-18T17:44:10;101064.72;;;2.01;62.15
62374;BME280;48409;49.030;1.820;2022-12-18T17:46:38;101083.78;;;2.05;62.10
62374;BME280;48409;49.030;1.820;2022-12-18T17:49:03;101087.22;;;2.08;62.05
62374;BME280;48409;49.030;1.820;2022-12-18T17:51:29;101095.03;;;2.10;62.05
62374;BME280;48409;49.030;1.820;2022-12-18T17:53:55;101094.13;;;2.13;61.96
62374;BME280;48409;49.030;1.820;2022-12-18T17:56:22;101115.78;;;2.15;62.06
62374;BME280;48409;49.030;1.820;2022-12-18T17:58:51;101130.50;;;2.19;62.23
62374;BME280;48409;49.030;1.820;2022-12-18T18:01:20;101121.81;;;2.21;62.33
62374;BME280;48409;49.030;1.820;2022-12-18T18:03:46;101118.38;;;2.24;62.30
62374;BME280;48409;49.030;1.820;2022-12-18T18:06:12;101110.53;;;2.29;62.29
62374;BME280;48409;49.030;1.820;2022-12-18T18:08:58;101113.97;;;2.32;62.35
62374;BME280;48409;49.030;1.820;2022-12-18T18:11:29;101123.47;;;2.37;62.15
62374;BME280;48409;49.030;1.820;2022-12-18T18:14:16;101125.25;;;2.38;62.33
62374;BME280;48409;49.030;1.820;2022-12-18T18:16:48;101131.28;;;2.41;62.44
62374;BME280;48409;49.030;1.820;2022-12-18T18:19:18;101128.66;;;2.43;62.33
62374;BME280;48409;49.030;1.820;2022-12-18T18:21:46;101125.19;;;2.47;62.38
62374;BME280;48409;49.030;1.820;2022-12-18T18:24:17;101126.91;;;2.48;62.40
62374;BME280;48409;49.030;1.820;2022-12-18T18:26:45;101127.75;;;2.52;62.45
62374;BME280;48409;49.030;1.820;2022-12-18T18:29:19;101133.81;;;2.52;62.15
62374;BME280;48409;49.030;1.820;2022-12-18T18:31:45;101135.53;;;2.53;62.50
62374;BME280;48409;49.030;1.820;2022-12-18T18:34:31;101132.94;;;2.53;62.38
62374;BME280;48409;49.030;1.820;2022-12-18T18:36:57;101124.25;;;2.56;62.38
62374;BME280;48409;49.030;1.820;2022-12-18T18:39:22;101126.84;;;2.57;62.55
62374;BME280;48409;49.030;1.820;2022-12-18T18:41:48;101121.63;;;2.60;62.46
62374;BME280;48409;49.030;1.820;2022-12-18T18:44:24;101114.69;;;2.63;62.72
62374;BME280;48409;49.030;1.820;2022-12-18T18:46:55;101106.00;;;2.64;62.60
62374;BME280;48409;49.030;1.820;2022-12-18T18:49:24;101106.84;;;2.67;62.64
62374;BME280;48409;49.030;1.820;2022-12-18T18:51:52;101102.50;;;2.71;62.67
62374;BME280;48409;49.030;1.820;2022-12-18T18:54:18;101079.06;;;2.74;62.36
62374;BME280;48409;49.030;1.820;2022-12-18T18:56:50;101074.69;;;2.76;62.67
62374;BME280;48409;49.030;1.820;2022-12-18T18:59:21;101092.03;;;2.79;62.79
62374;BME280;48409;49.030;1.820;2022-12-18T19:01:47;101097.22;;;2.82;62.61
62374;BME280;48409;49.030;1.820;2022-12-18T19:04:14;101098.94;;;2.81;62.48
62374;BME280;48409;49.030;1.820;2022-12-18T19:06:48;101095.44;;;2.85;62.58
62374;BME280;48409;49.030;1.820;2022-12-18T19:09:14;101096.31;;;2.87;62.76
62374;BME280;48409;49.030;1.820;2022-12-18T19:11:42;101086.72;;;2.90;62.58
62374;BME280;48409;49.030;1.820;2022-12-18T19:14:26;101088.44;;;2.94;62.88
62374;BME280;48409;49.030;1.820;2022-12-18T19:16:52;101089.31;;;2.97;62.99
62374;BME280;48409;49.030;1.820;2022-12-18T19:19:18;101088.41;;;3.00;62.96
62374;BME280;48409;49.030;1.820;2022-12-18T19:21:55;101092.72;;;3.03;62.68
62374;BME280;48409;49.030;1.820;2022-12-18T19:24:20;101086.63;;;3.05;62.66
62374;BME280;48409;49.030;1.820;2022-12-18T19:26:46;101097.00;;;3.08;62.74
62374;BME280;48409;49.030;1.820;2022-12-18T19:29:17;101096.09;;;3.12;62.88
62374;BME280;48409;49.030;1.820;2022-12-18T19:31:42;101098.69;;;3.16;63.10
62374;BME280;48409;49.030;1.820;2022-12-18T19:34:09;101102.16;;;3.18;62.96
62374;BME280;48409;49.030;1.820;2022-12-18T19:36:39;101090.84;;;3.20;63.10
62374;BME280;48409;49.030;1.820;2022-12-18T19:39:15;101092.56;;;3.23;62.93
62374;BME280;48409;49.030;1.820;2022-12-18T19:41:41;101092.50;;;3.26;63.18
62374;BME280;48409;49.030;1.820;2022-12-18T19:44:10;101076.88;;;3.28;63.00
62374;BME280;48409;49.030;1.820;2022-12-18T19:46:37;101093.34;;;3.31;63.00
62374;BME280;48409;49.030;1.820;2022-12-18T19:49:05;101075.97;;;3.33;63.18
62374;BME280;48409;49.030;1.820;2022-12-18T19:51:31;101080.28;;;3.36;63.12
62374;BME280;48409;49.030;1.820;2022-12-18T19:53:57;101084.59;;;3.38;63.08
62374;BME280;48409;49.030;1.820;2022-12-18T19:56:25;101079.34;;;3.42;63.08
62374;BME280;48409;49.030;1.820;2022-12-18T19:58:52;101067.16;;;3.44;62.98
62374;BME280;48409;49.030;1.820;2022-12-18T20:01:20;101070.63;;;3.46;63.29
62374;BME280;48409;49.030;1.820;2022-12-18T20:03:46;101056.72;;;3.47;63.01
62374;BME280;48409;49.030;1.820;2022-12-18T20:08:43;101043.66;;;3.51;63.10
62374;BME280;48409;49.030;1.820;2022-12-18T20:11:09;101043.66;;;3.53;63.16
62374;BME280;48409;49.030;1.820;2022-12-18T20:13:35;101033.16;;;3.56;63.25
62374;BME280;48409;49.030;1.820;2022-12-18T20:16:10;101029.66;;;3.59;63.29
62374;BME280;48409;49.030;1.820;2022-12-18T20:18:36;101026.16;;;3.61;63.26
62374;BME280;48409;49.030;1.820;2022-12-18T20:21:04;101030.50;;;3.62;63.33
62374;BME280;48409;49.030;1.820;2022-12-18T20:23:29;101027.03;;;3.63;63.19
62374;BME280;48409;49.030;1.820;2022-12-18T20:25:57;101027.81;;;3.69;63.19
62374;BME280;48409;49.030;1.820;2022-12-18T20:28:23;101023.50;;;3.69;63.29
62374;BME280;48409;49.030;1.820;2022-12-18T20:30:53;101031.25;;;3.72;63.46
62374;BME280;48409;49.030;1.820;2022-12-18T20:33:22;101027.75;;;3.75;63.53
62374;BME280;48409;49.030;1.820;2022-12-18T20:35:48;101011.25;;;3.76;63.48
62374;BME280;48409;49.030;1.820;2022-12-18T20:38:16;101015.56;;;3.78;63.43
62374;BME280;48409;49.030;1.820;2022-12-18T20:40:42;101016.38;;;3.81;63.55
62374;BME280;48409;49.030;1.820;2022-12-18T20:43:11;101013.75;;;3.84;63.35
62374;BME280;48409;49.030;1.820;2022-12-18T20:45:36;101014.63;;;3.84;63.42
62374;BME280;48409;49.030;1.820;2022-12-18T20:48:03;101006.75;;;3.86;63.65
62374;BME280;48409;49.030;1.820;2022-12-18T20:50:28;101015.44;;;3.88;63.59
62374;BME280;48409;49.030;1.820;2022-12-18T20:52:54;101004.09;;;3.90;63.70
62374;BME280;48409;49.030;1.820;2022-12-18T20:55:19;101005.81;;;3.93;63.49
62374;BME280;48409;49.030;1.820;2022-12-18T20:57:46;101006.69;;;3.94;63.54
62374;BME280;48409;49.030;1.820;2022-12-18T21:00:14;101006.63;;;3.97;63.78
62374;BME280;48409;49.030;1.820;2022-12-18T21:02:40;101000.53;;;3.98;63.69
62374;BME280;48409;49.030;1.820;2022-12-18T21:05:06;101002.22;;;4.02;63.41
62374;BME280;48409;49.030;1.820;2022-12-18T21:07:32;101005.66;;;4.04;63.92
62374;BME280;48409;49.030;1.820;2022-12-18T21:09:57;101001.25;;;4.08;63.81
62374;BME280;48409;49.030;1.820;2022-12-18T21:12:26;101010.78;;;4.10;63.76
62374;BME280;48409;49.030;1.820;2022-12-18T21:15:10;100998.59;;;4.12;63.77
62374;BME280;48409;49.030;1.820;2022-12-18T21:17:38;100999.44;;;4.14;63.72
62374;BME280;48409;49.030;1.820;2022-12-18T21:20:07;100990.69;;;4.17;63.63
62374;BME280;48409;49.030;1.820;2022-12-18T21:22:41;100995.88;;;4.18;63.77
62374;BME280;48409;49.030;1.820;2022-12-18T21:25:14;101008.03;;;4.21;63.91
62374;BME280;48409;49.030;1.820;2022-12-18T21:27:47;101002.78;;;4.23;63.83
62374;BME280;48409;49.030;1.820;2022-12-18T21:30:18;100994.03;;;4.27;63.66
62374;BME280;48409;49.030;1.820;2022-12-18T21:32:46;101002.72;;;4.29;63.70
62374;BME280;48409;49.030;1.820;2022-12-18T21:35:14;100992.25;;;4.30;64.06
62374;BME280;48409;49.030;1.820;2022-12-18T21:40:18;100984.34;;;4.35;64.10
62374;BME280;48409;49.030;1.820;2022-12-18T21:42:46;100991.28;;;4.36;63.91
62374;BME280;48409;49.030;1.820;2022-12-18T21:45:37;100994.75;;;4.38;63.81
62374;BME280;48409;49.030;1.820;2022-12-18T21:48:02;101000.81;;;4.39;64.17
62374;BME280;48409;49.030;1.820;2022-12-18T21:50:28;100998.19;;;4.40;64.18
62374;BME280;48409;49.030;1.820;2022-12-18T21:53:00;101007.69;;;4.43;63.89
62374;BME280;48409;49.030;1.820;2022-12-18T21:55:28;101010.28;;;4.44;64.33
62374;BME280;48409;49.030;1.820;2022-12-18T21:57:57;101008.53;;;4.47;64.23
62374;BME280;48409;49.030;1.820;2022-12-18T22:00:22;101003.25;;;4.50;64.01
62374;BME280;48409;49.030;1.820;2022-12-18T22:02:48;100994.56;;;4.51;64.05
62374;BME280;48409;49.030;1.820;2022-12-18T22:05:17;101007.56;;;4.52;64.18
62374;BME280;48409;49.030;1.820;2022-12-18T22:07:43;101004.09;;;4.53;64.32
62374;BME280;48409;49.030;1.820;2022-12-18T22:10:09;101008.38;;;4.56;64.16
62374;BME280;48409;49.030;1.820;2022-12-18T22:12:46;101017.03;;;4.58;64.33
62374;BME280;48409;49.030;1.820;2022-12-18T22:15:22;101018.75;;;4.59;64.14
62374;BME280;48409;49.030;1.820;2022-12-18T22:17:57;101018.72;;;4.62;64.39
62374;BME280;48409;49.030;1.820;2022-12-18T22:20:48;101006.53;;;4.64;64.00
62374;BME280;48409;49.030;1.820;2022-12-18T22:23:16;101003.03;;;4.65;64.20
62374;BME280;48409;49.030;1.820;2022-12-18T22:25:44;101011.66;;;4.67;64.35
62374;BME280;48409;49.030;1.820;2022-12-18T22:28:20;101002.94;;;4.70;64.32
62374;BME280;48409;49.030;1.820;2022-12-18T22:31:04;101003.75;;;4.75;64.25
62374;BME280;48409;49.030;1.820;2022-12-18T22:33:32;100983.69;;;4.76;64.50
62374;BME280;48409;49.030;1.820;2022-12-18T22:36:04;100994.09;;;4.79;64.50
62374;BME280;48409;49.030;1.820;2022-12-18T22:38:33;100981.88;;;4.81;64.35
62374;BME280;48409;49.030;1.820;2022-12-18T22:41:02;100980.06;;;4.86;64.20
62374;BME280;48409;49.030;1.820;2022-12-18T22:43:27;100987.00;;;4.87;64.19
62374;BME280;48409;49.030;1.820;2022-12-18T22:46:03;100986.97;;;4.90;64.61
62374;BME280;48409;49.030;1.820;2022-12-18T22:48:32;100985.16;;;4.92;64.68
62374;BME280;48409;49.030;1.820;2022-12-18T22:51:01;100995.56;;;4.95;64.42
62374;BME280;48409;49.030;1.820;2022-12-18T22:53:26;100985.03;;;4.99;64.77
62374;BME280;48409;49.030;1.820;2022-12-18T22:55:59;100983.28;;;5.01;64.76
62374;BME280;48409;49.030;1.820;2022-12-18T22:58:32;100999.72;;;5.06;64.40
62374;BME280;48409;49.030;1.820;2022-12-18T23:00:58;100997.09;;;5.07;64.71
62374;BME280;48409;49.030;1.820;2022-12-18T23:03:26;101000.50;;;5.11;64.79
62374;BME280;48409;49.030;1.820;2022-12-18T23:06:02;101003.03;;;5.16;64.81
62374;BME280;48409;49.030;1.820;2022-12-18T23:08:47;101006.47;;;5.16;64.74
62374;BME280;48409;49.030;1.820;2022-12-18T23:11:18;100998.59;;;5.19;64.54
62374;BME280;48409;49.030;1.820;2022-12-18T23:16:35;100989.00;;;5.21;64.64
62374;BME280;48409;49.030;1.820;2022-12-18T23:19:03;100988.09;;;5.22;64.47
62374;BME280;48409;49.030;1.820;2022-12-18T23:21:33;100998.47;;;5.26;64.71
62374;BME280;48409;49.030;1.820;2022-12-18T23:24:06;100999.34;;;5.26;64.68
62374;BME280;48409;49.030;1.820;2022-12-18T23:26:32;101001.88;;;5.31;64.80
62374;BME280;48409;49.030;1.820;2022-12-18T23:29:00;100993.97;;;5.34;64.81
62374;BME280;48409;49.030;1.820;2022-12-18T23:31:37;100986.97;;;5.38;64.84
62374;BME280;48409;49.030;1.820;2022-12-18T23:34:11;100986.88;;;5.41;64.76
62374;BME280;48409;49.030;1.820;2022-12-18T23:40:12;100985.91;;;5.46;64.85
62374;BME280;48409;49.030;1.820;2022-12-18T23:43:00;100977.09;;;5.51;65.06
62374;BME280;48409;49.030;1.820;2022-12-18T23:45:26;100975.34;;;5.53;65.11
62374;BME280;48409;49.030;1.820;2022-12-18T23:55:29;100970.84;;;5.59;65.10
62374;BME280;48409;49.030;1.820;2022-12-18T23:58:14;100964.69;;;5.62;64.94
